createdAt,value
2023-03-31T00:00:52.546Z,96565.00
2023-03-31T00:03:23.816Z,96561.00
2023-03-31T00:06:00.061Z,96553.00
2023-03-31T00:08:29.978Z,96556.00
2023-03-31T00:11:00.683Z,96554.00
2023-03-31T00:13:30.972Z,96546.00
2023-03-31T00:16:01.834Z,96540.00
2023-03-31T00:18:29.891Z,96535.00
2023-03-31T00:21:29.651Z,96527.00
2023-03-31T00:24:00.893Z,96523.00
2023-03-31T00:26:29.335Z,96535.00
2023-03-31T00:28:57.310Z,96521.00
2023-03-31T00:31:25.283Z,96517.00
2023-03-31T00:33:54.056Z,96509.00
2023-03-31T00:36:21.829Z,96506.00
2023-03-31T00:38:49.130Z,96499.00
2023-03-31T00:41:16.849Z,96500.00
2023-03-31T00:44:10.544Z,96499.00
2023-03-31T00:47:13.368Z,96490.00
2023-03-31T00:49:57.146Z,96494.00
2023-03-31T00:52:38.283Z,96492.00
2023-03-31T00:55:12.228Z,96476.00
2023-03-31T00:57:44.560Z,96475.00
2023-03-31T01:00:15.297Z,96476.00
2023-03-31T01:02:53.057Z,96468.00
2023-03-31T01:05:30.191Z,96451.00
2023-03-31T01:08:00.448Z,96451.00
2023-03-31T01:10:28.544Z,96451.00
2023-03-31T01:12:57.685Z,96460.00
2023-03-31T01:15:24.628Z,96450.00
2023-03-31T01:17:55.831Z,96456.00
2023-03-31T01:20:31.799Z,96440.00
2023-03-31T01:23:26.678Z,96447.00
2023-03-31T01:26:21.163Z,96421.00
2023-03-31T01:29:36.483Z,96417.00
2023-03-31T01:32:12.469Z,96404.00
2023-03-31T01:34:58.797Z,96403.00
2023-03-31T01:37:51.799Z,96405.00
2023-03-31T01:41:29.916Z,96402.00
2023-03-31T01:44:40.265Z,96391.00
2023-03-31T01:47:25.687Z,96374.00
2023-03-31T01:50:05.755Z,96377.00
2023-03-31T01:52:47.524Z,96370.00
2023-03-31T01:55:26.891Z,96370.00
2023-03-31T01:58:06.819Z,96356.00
2023-03-31T02:00:43.126Z,96365.00
2023-03-31T02:03:46.630Z,96359.00
2023-03-31T02:06:22.291Z,96343.00
2023-03-31T02:08:57.956Z,96348.00
2023-03-31T02:11:28.228Z,96337.00
2023-03-31T02:13:57.627Z,96339.00
2023-03-31T02:16:30.331Z,96338.00
2023-03-31T02:19:05.909Z,96328.00
2023-03-31T02:21:36.080Z,96316.00
2023-03-31T02:24:13.233Z,96325.00
2023-03-31T02:26:53.413Z,96312.00
2023-03-31T02:29:21.087Z,96310.00
2023-03-31T02:32:15.735Z,96301.00
2023-03-31T02:34:42.912Z,96287.00
2023-03-31T02:37:09.810Z,96300.00
2023-03-31T02:39:41.530Z,96294.00
2023-03-31T02:42:09.312Z,96293.00
2023-03-31T02:44:38.609Z,96285.00
2023-03-31T02:47:11.636Z,96278.00
2023-03-31T02:49:45.990Z,96269.00
2023-03-31T02:52:50.210Z,96251.00
2023-03-31T02:55:43.505Z,96247.00
2023-03-31T02:58:36.482Z,96254.00
2023-03-31T03:01:41.561Z,96233.00
2023-03-31T03:04:49.651Z,96222.00
2023-03-31T03:07:37.619Z,96211.00
2023-03-31T03:10:36.619Z,96188.00
2023-03-31T03:13:27.044Z,96188.00
2023-03-31T03:16:19.004Z,96178.00
2023-03-31T03:19:02.063Z,96157.00
2023-03-31T03:21:29.653Z,96158.00
2023-03-31T03:23:57.219Z,96175.00
2023-03-31T03:26:24.331Z,96159.00
2023-03-31T03:28:51.857Z,96149.00
2023-03-31T03:31:21.063Z,96146.00
2023-03-31T03:33:47.888Z,96141.00
2023-03-31T03:36:14.987Z,96148.00
2023-03-31T03:38:42.021Z,96140.00
2023-03-31T03:41:08.989Z,96140.00
2023-03-31T03:43:36.073Z,96136.00
2023-03-31T03:46:03.036Z,96127.00
2023-03-31T03:48:29.999Z,96113.00
2023-03-31T03:50:59.802Z,96120.00
2023-03-31T03:53:26.992Z,96131.00
2023-03-31T03:55:53.787Z,96115.00
2023-03-31T03:58:20.865Z,96109.00
2023-03-31T04:00:47.983Z,96108.00
2023-03-31T04:03:15.185Z,96107.00
2023-03-31T04:05:45.145Z,96089.00
2023-03-31T04:08:11.976Z,96091.00
2023-03-31T04:10:44.317Z,96071.00
2023-03-31T04:13:11.214Z,96069.00
2023-03-31T04:15:38.250Z,96057.00
2023-03-31T04:18:05.268Z,96063.00
2023-03-31T04:20:32.143Z,96069.00
2023-03-31T04:22:59.069Z,96064.00
2023-03-31T04:25:25.898Z,96060.00
2023-03-31T04:27:55.785Z,96051.00
2023-03-31T04:30:25.338Z,96060.00
2023-03-31T04:33:06.529Z,96047.00
2023-03-31T04:35:52.678Z,96048.00
2023-03-31T04:38:23.444Z,96052.00
2023-03-31T04:40:52.879Z,96055.00
2023-03-31T04:43:21.444Z,96061.00
2023-03-31T04:45:48.405Z,96037.00
2023-03-31T04:48:15.484Z,96041.00
2023-03-31T04:50:42.264Z,96042.00
2023-03-31T04:53:09.370Z,96040.00
2023-03-31T04:55:36.256Z,96020.00
2023-03-31T04:58:03.280Z,96033.00
2023-03-31T05:00:30.089Z,96021.00
2023-03-31T05:02:57.122Z,96031.00
2023-03-31T05:05:24.163Z,96021.00
2023-03-31T05:07:51.071Z,96023.00
2023-03-31T05:10:17.942Z,96009.00
2023-03-31T05:12:45.145Z,96002.00
2023-03-31T05:15:13.042Z,95992.00
2023-03-31T05:17:39.946Z,95981.00
2023-03-31T05:20:08.446Z,95967.00
2023-03-31T05:22:37.717Z,95945.00
2023-03-31T05:25:08.548Z,95933.00
2023-03-31T05:27:36.322Z,95924.00
2023-03-31T05:30:04.891Z,95919.00
2023-03-31T05:32:31.728Z,95916.00
2023-03-31T05:34:58.750Z,95920.00
2023-03-31T05:37:26.995Z,95895.00
2023-03-31T05:39:54.051Z,95912.00
2023-03-31T05:42:21.161Z,95916.00
2023-03-31T05:44:47.942Z,95910.00
2023-03-31T05:47:16.314Z,95921.00
2023-03-31T05:49:43.711Z,95907.00
2023-03-31T05:52:11.228Z,95915.00
2023-03-31T05:54:38.106Z,95892.00
2023-03-31T05:57:04.965Z,95880.00
2023-03-31T05:59:32.149Z,95883.00
2023-03-31T06:01:59.301Z,95886.00
2023-03-31T06:04:26.259Z,95896.00
2023-03-31T06:06:53.990Z,95895.00
2023-03-31T06:09:21.188Z,95870.00
2023-03-31T06:11:50.463Z,95861.00
2023-03-31T06:14:17.888Z,95856.00
2023-03-31T06:16:44.692Z,95865.00
2023-03-31T06:19:11.482Z,95862.00
2023-03-31T06:21:38.228Z,95844.00
2023-03-31T06:24:05.481Z,95847.00
2023-03-31T06:26:32.487Z,95841.00
2023-03-31T06:28:59.338Z,95824.00
2023-03-31T06:31:26.872Z,95829.00
2023-03-31T06:33:54.906Z,95820.00
2023-03-31T06:36:22.609Z,95824.00
2023-03-31T06:38:50.873Z,95817.00
2023-03-31T06:41:20.874Z,95807.00
2023-03-31T06:43:47.982Z,95804.00
2023-03-31T06:46:15.450Z,95810.00
2023-03-31T06:48:42.458Z,95793.00
2023-03-31T06:51:10.323Z,95801.00
2023-03-31T06:53:37.476Z,95811.00
2023-03-31T06:56:06.429Z,95804.00
2023-03-31T06:58:34.172Z,95813.00
2023-03-31T07:01:04.285Z,95801.00
2023-03-31T07:03:32.581Z,95802.00
2023-03-31T07:06:01.132Z,95794.00
2023-03-31T07:08:28.262Z,95799.00
2023-03-31T07:10:58.718Z,95794.00
2023-03-31T07:13:27.151Z,95796.00
2023-03-31T07:15:54.695Z,95792.00
2023-03-31T07:18:26.010Z,95775.00
2023-03-31T07:20:53.182Z,95781.00
2023-03-31T07:23:21.081Z,95775.00
2023-03-31T07:25:48.442Z,95783.00
2023-03-31T07:28:15.990Z,95780.00
2023-03-31T07:30:42.976Z,95775.00
2023-03-31T07:33:09.951Z,95766.00
2023-03-31T07:35:42.987Z,95775.00
2023-03-31T07:38:11.400Z,95755.00
2023-03-31T07:40:39.761Z,95779.00
2023-03-31T07:43:07.423Z,95776.00
2023-03-31T07:45:35.685Z,95778.00
2023-03-31T07:48:03.001Z,95766.00
2023-03-31T07:50:30.303Z,95774.00
2023-03-31T07:52:58.794Z,95772.00
2023-03-31T07:55:26.616Z,95763.00
2023-03-31T07:57:53.586Z,95766.00
2023-03-31T08:00:21.194Z,95773.00
2023-03-31T08:02:48.108Z,95773.00
2023-03-31T08:05:18.329Z,95758.00
2023-03-31T08:07:48.995Z,95754.00
2023-03-31T08:10:22.164Z,95751.00
2023-03-31T08:12:48.978Z,95763.00
2023-03-31T08:15:16.682Z,95754.00
2023-03-31T08:17:43.522Z,95759.00
2023-03-31T08:20:11.534Z,95743.00
2023-03-31T08:22:40.368Z,95743.00
2023-03-31T08:25:09.276Z,95746.00
2023-03-31T08:27:39.229Z,95745.00
2023-03-31T08:30:09.490Z,95745.00
2023-03-31T08:32:37.035Z,95746.00
2023-03-31T08:35:04.941Z,95734.00
2023-03-31T08:37:32.753Z,95730.00
2023-03-31T08:40:00.491Z,95735.00
2023-03-31T08:42:43.751Z,95732.00
2023-03-31T08:45:31.007Z,95727.00
2023-03-31T08:48:17.455Z,95722.00
2023-03-31T08:50:52.756Z,95711.00
2023-03-31T08:53:40.302Z,95708.00
2023-03-31T08:56:19.425Z,95700.00
2023-03-31T08:58:50.391Z,95711.00
2023-03-31T09:02:04.666Z,95715.00
2023-03-31T09:04:59.468Z,95705.00
2023-03-31T09:07:59.286Z,95695.00
2023-03-31T09:11:04.708Z,95702.00
2023-03-31T09:13:51.462Z,95696.00
2023-03-31T09:16:31.875Z,95689.00
2023-03-31T09:19:02.026Z,95687.00
2023-03-31T09:21:45.715Z,95671.00
2023-03-31T09:24:32.413Z,95675.00
2023-03-31T09:27:11.889Z,95652.00
2023-03-31T09:29:41.339Z,95669.00
2023-03-31T09:32:19.594Z,95671.00
2023-03-31T09:34:52.821Z,95664.00
2023-03-31T09:37:19.892Z,95655.00
2023-03-31T09:39:46.694Z,95653.00
2023-03-31T09:42:15.074Z,95659.00
2023-03-31T09:44:47.259Z,95645.00
2023-03-31T09:47:40.336Z,95654.00
2023-03-31T09:50:12.467Z,95641.00
2023-03-31T09:52:56.738Z,95648.00
2023-03-31T09:55:42.917Z,95640.00
2023-03-31T09:58:17.301Z,95641.00
2023-03-31T10:01:05.234Z,95634.00
2023-03-31T10:03:36.883Z,95625.00
2023-03-31T10:06:11.648Z,95637.00
2023-03-31T10:08:44.520Z,95624.00
2023-03-31T10:11:13.197Z,95640.00
2023-03-31T10:13:53.236Z,95626.00
2023-03-31T10:16:42.593Z,95614.00
2023-03-31T10:19:25.898Z,95609.00
2023-03-31T10:22:16.629Z,95602.00
2023-03-31T10:24:46.133Z,95595.00
2023-03-31T10:27:31.414Z,95596.00
2023-03-31T10:30:01.791Z,95597.00
2023-03-31T10:32:45.892Z,95597.00
2023-03-31T10:35:33.559Z,95595.00
2023-03-31T10:38:11.137Z,95582.00
2023-03-31T10:40:41.313Z,95573.00
2023-03-31T10:43:18.442Z,95583.00
2023-03-31T10:45:56.396Z,95573.00
2023-03-31T10:48:39.782Z,95569.00
2023-03-31T10:51:26.888Z,95558.00
2023-03-31T10:54:00.811Z,95559.00
2023-03-31T10:56:43.348Z,95542.00
2023-03-31T10:59:53.915Z,95547.00
2023-03-31T11:02:39.207Z,95556.00
2023-03-31T11:05:52.369Z,95555.00
2023-03-31T11:08:38.042Z,95543.00
2023-03-31T11:11:16.659Z,95563.00
2023-03-31T11:14:08.243Z,95576.00
2023-03-31T11:16:54.283Z,95574.00
2023-03-31T11:19:41.513Z,95571.00
2023-03-31T11:22:30.075Z,95563.00
2023-03-31T11:25:39.938Z,95577.00
2023-03-31T11:29:03.081Z,95573.00
2023-03-31T11:31:41.703Z,95556.00
2023-03-31T11:34:42.832Z,95568.00
2023-03-31T11:37:35.415Z,95562.00
2023-03-31T11:40:38.499Z,95565.00
2023-03-31T11:43:33.955Z,95567.00
2023-03-31T11:46:10.037Z,95575.00
2023-03-31T11:49:02.741Z,95571.00
2023-03-31T11:51:47.721Z,95556.00
2023-03-31T11:54:25.182Z,95554.00
2023-03-31T11:56:53.529Z,95564.00
2023-03-31T11:59:23.943Z,95553.00
2023-03-31T12:02:10.455Z,95570.00
2023-03-31T12:04:49.510Z,95577.00
2023-03-31T12:07:36.218Z,95561.00
2023-03-31T12:10:22.333Z,95564.00
2023-03-31T12:13:09.590Z,95571.00
2023-03-31T12:16:01.083Z,95565.00
2023-03-31T12:18:38.821Z,95556.00
2023-03-31T12:21:06.536Z,95549.00
2023-03-31T12:23:44.240Z,95549.00
2023-03-31T12:26:42.196Z,95546.00
2023-03-31T12:29:38.868Z,95526.00
2023-03-31T12:32:16.776Z,95527.00
2023-03-31T12:35:01.906Z,95537.00
2023-03-31T12:38:02.661Z,95532.00
2023-03-31T12:41:14.743Z,95538.00
2023-03-31T12:44:29.208Z,95525.00
2023-03-31T12:46:55.992Z,95532.00
2023-03-31T12:54:16.746Z,95539.00
2023-03-31T12:57:01.980Z,95530.00
2023-03-31T12:59:41.667Z,95512.00
2023-03-31T13:02:21.665Z,95518.00
2023-03-31T13:04:50.472Z,95516.00
2023-03-31T13:07:29.224Z,95517.00
2023-03-31T13:10:14.700Z,95509.00
2023-03-31T13:12:42.698Z,95514.00
2023-03-31T13:15:15.552Z,95501.00
2023-03-31T13:17:52.937Z,95498.00
2023-03-31T13:20:38.880Z,95517.00
2023-03-31T13:23:23.040Z,95508.00
2023-03-31T13:35:56.999Z,95508.00
2023-03-31T13:38:50.499Z,95498.00
2023-03-31T13:41:38.188Z,95500.00
2023-03-31T13:44:22.636Z,95490.00
2023-03-31T13:47:21.073Z,95493.00
2023-03-31T13:49:55.789Z,95495.00
2023-03-31T13:52:52.988Z,95503.00
2023-03-31T13:55:56.083Z,95510.00
2023-03-31T13:58:50.179Z,95514.00
2023-03-31T14:01:41.301Z,95534.00
2023-03-31T14:04:35.911Z,95529.00
2023-03-31T14:07:18.277Z,95551.00
2023-03-31T14:09:52.202Z,95555.00
2023-03-31T14:12:36.446Z,95570.00
2023-03-31T14:15:06.720Z,95565.00
2023-03-31T14:17:40.298Z,95547.00
2023-03-31T14:20:57.381Z,95549.00
2023-03-31T14:23:49.235Z,95543.00
2023-03-31T14:26:58.477Z,95537.00
2023-03-31T14:30:06.518Z,95537.00
2023-03-31T14:33:13.986Z,95526.00
2023-03-31T14:36:01.862Z,95521.00
2023-03-31T14:38:30.532Z,95518.00
2023-03-31T14:41:00.916Z,95519.00
2023-03-31T14:43:33.817Z,95520.00
2023-03-31T14:46:10.474Z,95503.00
2023-03-31T14:48:48.647Z,95519.00
2023-03-31T14:51:28.217Z,95513.00
2023-03-31T14:54:02.309Z,95501.00
2023-03-31T14:56:40.441Z,95492.00
2023-03-31T14:59:09.048Z,95496.00
2023-03-31T15:01:38.657Z,95491.00
2023-03-31T15:04:15.713Z,95489.00
2023-03-31T15:06:47.852Z,95485.00
2023-03-31T15:09:27.383Z,95485.00
2023-03-31T15:12:02.310Z,95476.00
2023-03-31T15:14:42.655Z,95488.00
2023-03-31T15:17:20.514Z,95478.00
2023-03-31T15:19:53.632Z,95468.00
2023-03-31T15:22:25.840Z,95481.00
2023-03-31T15:24:54.020Z,95488.00
2023-03-31T15:27:36.641Z,95475.00
2023-03-31T15:30:17.271Z,95473.00
2023-03-31T15:32:45.128Z,95466.00
2023-03-31T15:35:34.525Z,95471.00
2023-03-31T15:38:05.142Z,95466.00
2023-03-31T15:40:40.154Z,95473.00
2023-03-31T15:43:25.373Z,95476.00
2023-03-31T15:46:01.076Z,95470.00
2023-03-31T15:48:34.188Z,95463.00
2023-03-31T15:51:07.587Z,95462.00
2023-03-31T15:53:53.663Z,95453.00
2023-03-31T15:56:36.316Z,95458.00
2023-03-31T15:59:06.007Z,95460.00
2023-03-31T16:01:39.871Z,95458.00
2023-03-31T16:04:13.697Z,95450.00
2023-03-31T16:06:54.804Z,95466.00
2023-03-31T16:09:54.912Z,95459.00
2023-03-31T16:12:38.543Z,95452.00
2023-03-31T16:15:24.063Z,95462.00
2023-03-31T16:18:00.451Z,95460.00
2023-03-31T16:20:36.951Z,95463.00
2023-03-31T16:23:25.991Z,95445.00
2023-03-31T16:25:53.897Z,95448.00
2023-03-31T16:28:26.728Z,95452.00
2023-03-31T16:30:54.635Z,95445.00
2023-03-31T16:33:23.732Z,95463.00
2023-03-31T16:35:59.048Z,95443.00
2023-03-31T16:38:30.442Z,95451.00
2023-03-31T16:40:58.615Z,95454.00
2023-03-31T16:43:29.054Z,95471.00
2023-03-31T16:45:59.280Z,95468.00
2023-03-31T16:48:28.727Z,95453.00
2023-03-31T16:50:58.709Z,95464.00
2023-03-31T16:53:29.679Z,95467.00
2023-03-31T16:55:57.809Z,95469.00
2023-03-31T16:58:26.135Z,95460.00
2023-03-31T17:00:53.594Z,95476.00
2023-03-31T17:03:21.970Z,95479.00
2023-03-31T17:05:55.653Z,95478.00
2023-03-31T17:08:27.472Z,95488.00
2023-03-31T17:11:05.340Z,95492.00
2023-03-31T17:13:33.665Z,95491.00
2023-03-31T17:16:13.503Z,95487.00
2023-03-31T17:18:45.951Z,95495.00
2023-03-31T17:21:16.683Z,95493.00
2023-03-31T17:23:43.498Z,95475.00
2023-03-31T17:26:15.377Z,95491.00
2023-03-31T17:28:42.877Z,95495.00
2023-03-31T17:31:15.462Z,95484.00
2023-03-31T17:33:43.657Z,95491.00
2023-03-31T17:36:11.393Z,95486.00
2023-03-31T17:38:41.982Z,95491.00
2023-03-31T17:41:13.376Z,95482.00
2023-03-31T17:43:44.467Z,95490.00
2023-03-31T17:46:12.856Z,95491.00
2023-03-31T17:48:41.289Z,95480.00
2023-03-31T17:51:13.721Z,95489.00
2023-03-31T17:53:47.722Z,95496.00
2023-03-31T17:56:16.842Z,95487.00
2023-03-31T17:58:44.230Z,95486.00
2023-03-31T18:01:12.546Z,95489.00
2023-03-31T18:03:39.690Z,95477.00
2023-03-31T18:06:12.776Z,95488.00
2023-03-31T18:08:42.129Z,95490.00
2023-03-31T18:11:12.177Z,95483.00
2023-03-31T18:13:39.413Z,95490.00
2023-03-31T18:16:12.797Z,95481.00
2023-03-31T18:18:41.681Z,95477.00
2023-03-31T18:21:12.782Z,95475.00
2023-03-31T18:23:40.070Z,95489.00
2023-03-31T18:26:12.792Z,95492.00
2023-03-31T18:28:40.768Z,95494.00
2023-03-31T18:31:08.572Z,95494.00
2023-03-31T18:33:35.821Z,95493.00
2023-03-31T18:36:03.324Z,95500.00
2023-03-31T18:38:30.473Z,95494.00
2023-03-31T18:40:57.915Z,95493.00
2023-03-31T18:43:26.069Z,95487.00
2023-03-31T18:45:55.170Z,95487.00
2023-03-31T18:48:23.111Z,95507.00
2023-03-31T18:50:51.958Z,95486.00
2023-03-31T18:53:23.445Z,95492.00
2023-03-31T18:55:58.735Z,95500.00
2023-03-31T18:58:28.754Z,95507.00
2023-03-31T19:00:57.699Z,95488.00
2023-03-31T19:03:26.543Z,95502.00
2023-03-31T19:06:04.576Z,95490.00
2023-03-31T19:08:32.283Z,95496.00
2023-03-31T19:11:06.450Z,95501.00
2023-03-31T19:13:33.792Z,95498.00
2023-03-31T19:16:01.563Z,95499.00
2023-03-31T19:18:32.097Z,95508.00
2023-03-31T19:21:00.782Z,95494.00
2023-03-31T19:23:27.942Z,95500.00
2023-03-31T19:25:57.681Z,95497.00
2023-03-31T19:28:27.241Z,95501.00
2023-03-31T19:30:56.617Z,95496.00
2023-03-31T19:33:25.412Z,95513.00
2023-03-31T19:35:53.094Z,95515.00
2023-03-31T19:38:21.809Z,95513.00
2023-03-31T19:40:49.412Z,95529.00
2023-03-31T19:43:24.725Z,95515.00
2023-03-31T19:45:54.231Z,95518.00
2023-03-31T19:48:21.434Z,95524.00
2023-03-31T19:50:59.285Z,95517.00
2023-03-31T19:53:26.830Z,95518.00
2023-03-31T19:56:13.555Z,95515.00
2023-03-31T19:58:41.412Z,95517.00
2023-03-31T20:01:19.400Z,95512.00
2023-03-31T20:03:46.843Z,95513.00
2023-03-31T20:06:15.040Z,95518.00
2023-03-31T20:08:43.732Z,95499.00
2023-03-31T20:11:14.302Z,95518.00
2023-03-31T20:13:43.528Z,95508.00
2023-03-31T20:16:14.801Z,95500.00
2023-03-31T20:18:47.671Z,95499.00
2023-03-31T20:21:18.483Z,95509.00
2023-03-31T20:23:46.473Z,95495.00
2023-03-31T20:26:16.507Z,95500.00
2023-03-31T20:28:43.819Z,95515.00
2023-03-31T20:31:24.227Z,95499.00
2023-03-31T20:33:53.743Z,95502.00
2023-03-31T20:36:24.938Z,95491.00
2023-03-31T20:38:53.923Z,95496.00
2023-03-31T20:41:26.431Z,95500.00
2023-03-31T20:43:55.040Z,95488.00
2023-03-31T20:46:23.045Z,95501.00
2023-03-31T20:48:54.986Z,95495.00
2023-03-31T20:51:25.890Z,95506.00
2023-03-31T20:53:55.009Z,95497.00
2023-03-31T20:56:42.840Z,95497.00
2023-03-31T20:59:15.103Z,95493.00
2023-03-31T21:01:42.944Z,95494.00
2023-03-31T21:04:11.306Z,95500.00
2023-03-31T21:06:42.992Z,95502.00
2023-03-31T21:09:11.666Z,95489.00
2023-03-31T21:11:40.513Z,95487.00
2023-03-31T21:14:08.460Z,95506.00
2023-03-31T21:16:35.703Z,95517.00
2023-03-31T21:19:02.822Z,95495.00
2023-03-31T21:21:29.692Z,95505.00
2023-03-31T21:23:56.575Z,95505.00
2023-03-31T21:26:24.846Z,95497.00
2023-03-31T21:28:56.448Z,95485.00
2023-03-31T21:31:25.341Z,95488.00
2023-03-31T21:33:56.175Z,95492.00
2023-03-31T21:36:24.144Z,95499.00
2023-03-31T21:38:53.904Z,95492.00
2023-03-31T21:41:30.650Z,95499.00
2023-03-31T21:44:00.468Z,95491.00
2023-03-31T21:46:32.457Z,95480.00
2023-03-31T21:48:59.631Z,95485.00
2023-03-31T21:51:26.854Z,95494.00
2023-03-31T21:53:55.355Z,95487.00
2023-03-31T21:56:25.675Z,95501.00
2023-03-31T21:58:52.607Z,95497.00
2023-03-31T22:01:21.490Z,95491.00
2023-03-31T22:03:48.779Z,95483.00
2023-03-31T22:06:15.863Z,95480.00
2023-03-31T22:08:42.719Z,95492.00
2023-03-31T22:11:12.168Z,95509.00
2023-03-31T22:13:39.724Z,95505.00
2023-03-31T22:16:19.197Z,95497.00
2023-03-31T22:18:47.620Z,95503.00
2023-03-31T22:21:24.888Z,95501.00
2023-03-31T22:23:58.311Z,95505.00
2023-03-31T22:26:28.524Z,95512.00
2023-03-31T22:28:56.137Z,95495.00
2023-03-31T22:31:23.393Z,95503.00
2023-03-31T22:33:50.355Z,95498.00
2023-03-31T22:36:17.284Z,95486.00
2023-03-31T22:38:44.145Z,95506.00
2023-03-31T22:41:11.008Z,95499.00
2023-03-31T22:43:37.856Z,95487.00
2023-03-31T22:46:06.709Z,95496.00
2023-03-31T22:48:34.197Z,95508.00
2023-03-31T22:51:08.670Z,95489.00
2023-03-31T22:53:35.506Z,95505.00
2023-03-31T22:56:10.457Z,95507.00
2023-03-31T22:58:38.213Z,95503.00
2023-03-31T23:01:06.986Z,95503.00
2023-03-31T23:03:33.966Z,95500.00
2023-03-31T23:06:05.550Z,95501.00
2023-03-31T23:08:33.579Z,95500.00
2023-03-31T23:11:01.310Z,95500.00
2023-03-31T23:13:29.086Z,95495.00
2023-03-31T23:15:56.091Z,95511.00
2023-03-31T23:18:23.442Z,95510.00
2023-03-31T23:20:50.677Z,95506.00
2023-03-31T23:23:17.628Z,95507.00
2023-03-31T23:25:44.394Z,95507.00
2023-03-31T23:28:11.209Z,95499.00
2023-03-31T23:30:38.080Z,95505.00
2023-03-31T23:33:04.932Z,95506.00
2023-03-31T23:35:31.901Z,95504.00
2023-03-31T23:37:58.908Z,95485.00
2023-03-31T23:40:25.773Z,95488.00
2023-03-31T23:42:52.556Z,95486.00
2023-03-31T23:45:19.374Z,95478.00
2023-03-31T23:47:46.272Z,95491.00
2023-03-31T23:50:13.148Z,95505.00
2023-03-31T23:52:39.975Z,95475.00
2023-03-31T23:55:07.218Z,95476.00
2023-03-31T23:57:34.290Z,95482.00
